Latest Weather Observations for Victoria River Downs

IDD60801

Issued at 7:31 pm CST Friday 29 May 2015 (issued every 30 minutes, with the page automatically refreshed every 10 minutes)

About weather observations | Map of weather stations | Latest weather observations for NT | Other Formats
Station Details ID: 014825 Name: VICTORIA RIVER DOWNS Lat: -16.40 Lon: 131.01 Height: 88.5 m
Data from the previous 72 hours. | See also: Recent months at Victoria River Downs
Date/Time
CST
Temp
°C
App
Temp
°C
Dew
Point
Rel
Hum
%
Delta-T
°C
Wind Press
QNH
hPa
Press
MSL
hPa
Rain
since 9 am
mm
Dir
 
Spd
km/h
Gust
km/h
Spd
kts
Gust
kts
29/07:30pm 27.1 25.9 10.3 35 9.4 NNE 7 9 4 5 1013.6 - 0.0
29/07:00pm 27.5 26.7 9.8 33 9.9 NE 4 9 2 5 1013.4 - 0.0
29/06:30pm 30.0 28.6 9.0 27 11.7 NE 6 7 3 4 1012.8 - 0.0
29/06:00pm 32.6 31.2 9.4 24 13.2 E 7 11 4 6 1012.5 1012.1 0.0
29/05:30pm 34.1 31.9 8.0 20 14.6 E 9 15 5 8 1012.6 - 0.0
29/05:00pm 34.6 32.7 7.6 19 15.1 NE 7 11 4 6 1012.4 - 0.0
29/04:30pm 34.8 32.4 8.5 20 14.9 E 11 19 6 10 1012.4 - 0.0
29/04:00pm 35.1 33.3 9.5 21 14.7 NE 9 22 5 12 1012.2 - 0.0
29/03:30pm 34.9 31.9 7.9 19 15.2 ENE 13 19 7 10 1012.2 - 0.0
29/03:00pm 34.4 32.1 8.9 21 14.5 NE 11 19 6 10 1012.4 1011.9 0.0
29/02:30pm 34.7 33.4 11.2 24 13.9 NE 9 17 5 9 1012.7 - 0.0
29/02:00pm 34.0 31.9 11.2 25 13.4 NE 13 20 7 11 1013.4 - 0.0
29/01:30pm 33.1 31.7 11.0 26 12.9 E 9 17 5 9 1014.0 - 0.0
29/01:00pm 32.4 31.2 11.6 28 12.2 ENE 9 20 5 11 1014.6 - 0.0
29/12:30pm 32.3 30.8 12.0 29 12.0 NE 11 22 6 12 1015.1 - 0.0
29/12:00pm 30.7 29.5 11.6 31 11.1 NE 9 15 5 8 1015.5 1015.0 0.0
29/11:30am 30.2 30.0 13.5 36 10.0 S 7 11 4 6 1015.9 - 0.0
29/11:00am 29.0 28.2 12.8 36 9.6 ENE 9 15 5 8 1016.3 - 0.0
29/10:30am 28.7 28.2 13.8 40 8.9 NE 9 15 5 8 1016.7 - 0.0
29/10:00am 27.4 26.8 13.4 42 8.3 NE 9 11 5 6 1016.6 - 0.0
29/09:30am 26.1 25.6 12.5 42 7.9 ENE 7 9 4 5 1016.6 - 0.0
29/09:25am 25.8 25.4 13.0 45 7.5 NE 7 9 4 5 1016.6 - 0.0
29/09:00am 23.9 23.4 12.5 49 6.5 ENE 7 9 4 5 1016.3 1015.9 0.0
29/08:30am 20.9 21.9 13.1 61 4.5 CALM 0 0 0 0 1016.2 - 0.0
29/08:00am 18.9 19.7 12.4 66 3.6 CALM 0 0 0 0 1015.7 - 0.0
29/07:30am 16.6 16.9 10.9 69 3.1 CALM 0 0 0 0 1015.4 - 0.0
29/07:00am 16.9 16.3 11.6 71 2.9 ESE 6 7 3 4 1015.1 - 0.0
29/06:30am 16.8 17.2 11.3 70 3.0 CALM 0 9 0 5 1015.0 - 0.0
29/06:00am 17.3 16.6 11.3 68 3.3 WNW 6 7 3 4 1014.6 1014.1 0.0
29/05:30am 17.2 16.1 10.8 66 3.4 WNW 7 7 4 4 1014.5 - 0.0
29/05:00am 17.4 16.4 10.3 63 3.8 W 6 7 3 4 1014.3 - 0.0
29/04:30am 17.6 16.7 10.7 64 3.7 WNW 6 7 3 4 1014.3 - 0.0
29/04:00am 17.5 16.6 11.3 67 3.4 NNW 7 7 4 4 1014.1 - 0.0
29/03:30am 17.8 18.0 10.7 63 3.8 CALM 0 0 0 0 1014.0 - 0.0
29/03:00am 18.8 18.3 10.9 60 4.3 SE 4 6 2 3 1014.1 1013.6 0.0
29/02:30am 20.3 19.2 11.8 58 4.7 S 9 11 5 6 1014.4 - 0.0
29/02:00am 18.9 17.8 10.5 58 4.5 W 7 7 4 4 1014.3 - 0.0
29/01:30am 19.3 18.4 11.3 60 4.4 WNW 7 7 4 4 1014.5 - 0.0
29/01:00am 19.1 18.3 11.2 60 4.3 NW 6 7 3 4 1014.7 - 0.0
29/12:30am 19.3 18.6 11.3 60 4.4 NW 6 7 3 4 1014.8 - 0.0
29/12:00am 19.5 18.7 11.0 58 4.6 WNW 6 7 3 4 1014.9 1014.4 0.0
 
Date/Time
CST
Temp
°C
App
Temp
°C
Dew
Point
Rel
Hum
%
Delta-T
°C
Wind Press
QNH
hPa
Press
MSL
hPa
Rain
since 9 am
mm
Dir
 
Spd
km/h
Gust
km/h
Spd
kts
Gust
kts
28/11:30pm 20.2 20.4 11.7 58 4.7 SE 2 6 1 3 1015.0 - 0.0
28/11:00pm 20.6 21.2 11.8 57 4.9 CALM 0 0 0 0 1015.0 - 0.0
28/10:30pm 21.4 22.0 13.1 59 4.8 SSW 2 6 1 3 1015.1 - 0.0
28/10:00pm 22.1 22.5 14.7 63 4.4 SW 6 7 3 4 1014.9 - 0.0
28/09:30pm 23.7 23.8 13.8 53 5.8 NE 6 7 3 4 1014.9 - 0.0
28/09:00pm 23.6 23.0 11.6 47 6.8 NE 6 7 3 4 1014.7 1014.2 0.0
28/08:30pm 23.9 23.5 11.2 44 7.1 NE 4 7 2 4 1014.5 - 0.0
28/08:00pm 24.6 25.0 11.2 43 7.6 CALM 0 0 0 0 1014.1 - 0.0
28/07:30pm 26.1 25.4 11.4 39 8.4 ENE 6 7 3 4 1013.7 - 0.0
28/07:00pm 27.7 26.5 10.4 34 9.8 E 7 7 4 4 1013.2 - 0.0
28/06:30pm 29.6 28.6 10.2 30 11.0 ENE 6 7 3 4 1012.9 - 0.0
28/06:00pm 32.5 31.2 9.9 25 13.0 E 7 11 4 6 1012.6 1012.1 0.0
28/05:30pm 33.7 31.8 9.0 22 14.0 E 9 13 5 7 1012.3 - 0.0
28/05:00pm 34.2 31.1 8.8 21 14.4 ENE 15 20 8 11 1012.1 - 0.0
28/04:30pm 34.3 31.2 8.8 21 14.5 ENE 15 20 8 11 1011.9 - 0.0
28/04:00pm 34.6 32.1 9.8 22 14.3 ENE 13 20 7 11 1011.8 - 0.0
28/03:30pm 34.3 31.6 8.8 21 14.5 E 13 24 7 13 1011.9 - 0.0
28/03:00pm 34.7 32.3 9.9 22 14.4 ENE 13 24 7 13 1012.2 1011.7 0.0
28/02:30pm 33.7 30.8 9.7 23 13.8 NE 15 20 8 11 1012.6 - 0.0
28/02:00pm 33.9 31.2 10.5 24 13.6 E 15 20 8 11 1013.1 - 0.0
28/01:30pm 33.0 31.9 12.1 28 12.4 E 9 15 5 8 1013.6 - 0.0
28/01:00pm 32.6 30.5 12.3 29 12.1 NE 15 26 8 14 1014.2 - 0.0
28/12:30pm 31.8 30.9 12.6 31 11.4 NE 9 19 5 10 1014.7 - 0.0
28/12:00pm 31.1 30.1 13.4 34 10.6 ENE 11 17 6 9 1015.2 1014.7 0.0
28/11:30am 30.2 28.7 13.0 34 10.2 ENE 13 19 7 10 1015.5 - 0.0
28/11:00am 29.5 27.4 13.7 38 9.5 NE 17 22 9 12 1015.8 - 0.0
28/10:30am 28.4 27.2 13.9 41 8.7 ENE 13 19 7 10 1016.1 - 0.0
28/10:00am 27.0 25.3 13.7 44 7.9 NE 15 20 8 11 1016.1 - 0.0
28/09:30am 26.7 24.9 13.4 43 7.9 ENE 15 26 8 14 1016.1 - 0.0
28/09:00am 24.6 23.8 12.9 48 6.8 E 9 11 5 6 1016.0 1015.6 0.0
28/08:30am 21.9 22.6 12.2 54 5.5 CALM 0 0 0 0 1015.7 - 0.0
28/08:25am 21.6 22.5 13.0 58 4.9 CALM 0 0 0 0 1015.7 - 0.0
28/08:00am 19.6 20.9 14.0 70 3.2 CALM 0 0 0 0 1015.4 - 0.0
28/07:30am 16.7 17.3 11.8 73 2.7 CALM 0 6 0 3 1015.0 - 0.0
28/07:00am 16.7 15.9 11.2 70 3.0 WSW 6 7 3 4 1014.5 - 0.0
28/06:30am 17.0 17.3 10.8 67 3.3 CALM 0 0 0 0 1014.2 - 0.0
28/06:00am 17.5 18.4 12.8 74 2.6 CALM 0 0 0 0 1013.9 1013.4 0.0
28/05:30am 17.4 17.7 10.8 65 3.6 CALM 0 4 0 2 1013.9 - 0.0
28/05:00am 18.1 17.4 11.4 65 3.7 ENE 6 7 3 4 1013.9 - 0.0
28/04:30am 17.9 17.1 11.2 65 3.6 W 6 7 3 4 1013.5 - 0.0
28/04:00am 18.3 17.5 10.9 62 4.0 W 6 7 3 4 1013.4 - 0.0
28/03:30am 18.7 17.9 11.0 61 4.2 WNW 6 7 3 4 1013.4 - 0.0
28/03:00am 18.6 19.0 11.2 62 4.0 CALM 0 4 0 2 1013.3 1012.8 0.0
28/02:30am 18.9 19.3 11.2 61 4.2 CALM 0 0 0 0 1013.6 - 0.0
28/02:00am 19.7 20.2 11.5 59 4.5 CALM 0 4 0 2 1014.0 - 0.0
28/01:30am 19.7 19.8 13.9 69 3.3 WSW 6 9 3 5 1014.0 - 0.0
28/01:00am 20.0 20.0 11.0 56 4.9 W 2 7 1 4 1014.0 - 0.0
28/12:30am 20.0 20.4 11.2 57 4.8 CALM 0 0 0 0 1014.3 - 0.0
28/12:00am 20.9 21.2 12.1 57 4.9 WNW 2 6 1 3 1014.4 1013.9 0.0
 
Date/Time
CST
Temp
°C
App
Temp
°C
Dew
Point
Rel
Hum
%
Delta-T
°C
Wind Press
QNH
hPa
Press
MSL
hPa
Rain
since 9 am
mm
Dir
 
Spd
km/h
Gust
km/h
Spd
kts
Gust
kts
27/11:30pm 21.3 20.6 11.9 55 5.3 WNW 7 9 4 5 1014.4 - 0.0
27/11:00pm 21.2 21.8 11.8 55 5.3 CALM 0 0 0 0 1014.4 - 0.0
27/10:30pm 22.4 21.5 12.6 54 5.6 S 9 13 5 7 1014.4 - 0.0
27/10:00pm 22.1 22.4 10.9 49 6.2 CALM 0 0 0 0 1014.2 - 0.0
27/09:30pm 22.7 21.9 11.1 48 6.5 WNW 6 7 3 4 1014.1 - 0.0
27/09:00pm 23.1 23.3 11.8 49 6.4 NNE 2 7 1 4 1014.0 1013.5 0.0
27/08:30pm 23.8 24.3 11.5 46 6.9 CALM 0 0 0 0 1013.7 - 0.0
27/08:00pm 24.6 25.1 11.5 44 7.4 CALM 0 0 0 0 1013.3 - 0.0
27/07:30pm 26.1 26.5 11.1 39 8.5 CALM 0 0 0 0 1012.8 - 0.0
27/07:00pm 27.7 27.1 10.4 34 9.8 ENE 4 6 2 3 1012.5 - 0.0
27/06:30pm 30.3 29.0 9.8 28 11.6 E 7 9 4 5 1012.0 - 0.0
27/06:00pm 32.7 30.9 9.5 24 13.2 E 9 11 5 6 1011.9 1011.4 0.0
27/05:30pm 33.8 32.1 8.4 21 14.3 E 7 13 4 7 1011.8 - 0.0
27/05:00pm 33.9 31.7 9.2 22 14.1 E 11 22 6 12 1011.3 - 0.0
27/04:30pm 34.3 32.1 10.8 24 13.8 ESE 13 22 7 12 1011.2 - 0.0
27/04:00pm 34.5 31.8 9.0 21 14.5 NE 13 19 7 10 1011.3 - 0.0
27/03:30pm 34.2 31.2 9.4 22 14.2 E 15 24 8 13 1011.6 - 0.0
27/03:00pm 35.2 34.2 12.2 25 13.8 E 9 15 5 8 1011.9 1011.4 0.0
27/02:30pm 34.1 32.3 10.7 24 13.7 ENE 11 19 6 10 1012.3 - 0.0
27/02:00pm 34.1 32.3 10.7 24 13.7 ESE 11 22 6 12 1012.9 - 0.0
27/01:30pm 33.6 30.7 10.9 25 13.3 E 17 30 9 16 1013.5 - 0.0
27/01:00pm 33.2 30.9 11.7 27 12.7 ENE 15 22 8 12 1014.1 - 0.0
27/12:30pm 32.2 31.2 13.4 32 11.4 E 11 19 6 10 1014.8 - 0.0
27/12:00pm 31.1 30.2 12.5 32 11.0 ENE 9 19 5 10 1015.6 1015.1 0.0
27/11:30am 30.0 28.2 12.0 33 10.5 E 13 22 7 12 1016.0 - 0.0
27/11:00am 28.8 27.7 11.8 35 9.9 ENE 9 15 5 8 1016.7 - 0.0
27/10:30am 28.2 27.5 12.1 37 9.4 E 7 13 4 7 1017.3 - 0.0
27/10:00am 27.7 27.2 12.1 38 9.1 SE 6 9 3 5 1017.4 - 0.0
27/09:30am 25.6 24.1 9.0 35 9.1 S 7 9 4 5 1017.3 - 0.0
27/09:00am 24.0 22.2 9.6 40 7.9 SSE 9 13 5 7 1016.9 1016.4 0.0
27/08:30am 21.2 21.0 10.4 50 5.9 SW 2 9 1 5 1016.6 - 0.0
27/08:21am 20.4 20.7 10.8 54 5.3 CALM 0 0 0 0 1016.5 - 0.0
27/08:00am 17.7 17.8 10.1 61 4.0 CALM 0 0 0 0 1016.3 - 0.0
27/07:30am 15.5 15.6 10.1 70 2.8 CALM 0 0 0 0 1016.0 - 0.0
27/07:00am 14.9 14.8 9.5 70 2.8 CALM 0 0 0 0 1015.7 - 0.0
27/06:30am 15.3 15.3 9.9 70 2.8 CALM 0 0 0 0 1015.6 - 0.0
27/06:00am 15.7 15.6 9.6 67 3.2 CALM 0 0 0 0 1015.5 1015.0 0.0
27/05:30am 15.6 15.5 9.5 67 3.2 CALM 0 0 0 0 1015.3 - 0.0
27/05:00am 15.8 15.8 9.9 68 3.1 CALM 0 0 0 0 1015.1 - 0.0
27/04:30am 16.4 - 9.6 64 3.6 - - - - - 1015.3 - 0.0
27/04:00am 16.7 - 9.4 62 3.8 - - - - - 1015.5 - 0.0
27/03:30am 17.8 16.8 10.2 61 4.1 WSW 6 7 3 4 1015.2 - 0.0
27/03:00am 18.1 16.9 10.2 60 4.2 WNW 7 9 4 5 1015.3 1014.8 0.0
27/02:30am 18.2 16.9 10.1 59 4.3 NW 7 7 4 4 1015.7 - 0.0
27/02:00am 18.3 17.0 9.9 58 4.5 WNW 7 7 4 4 1016.1 - 0.0
27/01:30am 18.6 17.4 10.2 58 4.5 W 7 9 4 5 1016.3 - 0.0
27/01:00am 18.4 18.4 9.7 57 4.6 CALM 0 0 0 0 1016.3 - 0.0
27/12:30am 19.2 18.3 10.5 57 4.7 S 6 7 3 4 1016.4 - 0.0
27/12:00am 19.8 18.6 10.2 54 5.2 SSE 7 7 4 4 1016.7 1016.3 0.0
 
Date/Time
CST
Temp
°C
App
Temp
°C
Dew
Point
Rel
Hum
%
Delta-T
°C
Wind Press
QNH
hPa
Press
MSL
hPa
Rain
since 9 am
mm
Dir
 
Spd
km/h
Gust
km/h
Spd
kts
Gust
kts
26/11:30pm 20.3 19.6 12.0 59 4.6 S 7 11 4 6 1016.8 - 0.0
26/11:00pm 20.7 20.4 10.2 51 5.7 SE 2 7 1 4 1016.7 - 0.0
26/10:30pm 21.1 20.3 10.9 52 5.6 E 6 7 3 4 1016.5 - 0.0
26/10:00pm 21.3 21.3 11.1 52 5.6 NNW 2 9 1 5 1016.3 - 0.0
26/09:30pm 22.1 22.0 10.9 49 6.2 SW 2 6 1 3 1016.2 - 0.0
26/09:00pm 22.8 23.1 10.9 47 6.6 CALM 0 0 0 0 1015.9 1015.5 0.0
26/08:30pm 23.6 24.1 11.6 47 6.8 CALM 0 0 0 0 1015.7 - 0.0
26/08:00pm 24.6 24.8 10.5 41 7.9 CALM 0 0 0 0 1015.3 - 0.0

Other Formats:

Comma delimited format used in spreadsheet applications
http://www.bom.gov.au/fwo/IDD60801/IDD60801.94232.axf

JavaScript Object Notation format (JSON) in row-major order
http://www.bom.gov.au/fwo/IDD60801/IDD60801.94232.json